Monclova, COA, Mexico
Current Conditions -  °F | °C
As of 6:43 PM on Thursday 27 Nov 2014 (Local Time) from MMMV Reporting Station
Clear Clear  
Wind Chill: 63°   Ceiling: Unl
Heat Index: 63°   Visibility: 12mi
Dew Point: 39°   Wind: 6mph
Humidity: 42%   Direction: 30°NNE
Pressure: 30.31"   Gusts: NA
Location:  26.91°N, 101.42°W
Report Text: MMMV 280043Z 03005KT 12SM SKC 17/04 A3031
Loading
Personal Weather Stations






























Interactive Weather Map New forecast layout! Learn more

10-Day Weather Forecast

Advertisements
Track Severe Weather on mobile